Athol, ID

7:50 PM PST on November 23, 2014 (GMT -0800)
Ramsey Estates | Change Station
CLOSE
Current Station
Personal Weather Station
Location: Rathdrum, ID
Elevation: 2330 ft
Nearby Weather Stations

Elev 2330 ft 47.87 °N, 116.81 °W | Updated 1 second ago

Partly Cloudy
Partly Cloudy
32.7 °F
Feels Like 33 °F
N
0.0
Wind Variable Wind from SSW
Gusts 0.0 mph

Today
High -- | Low -- °F
--% Chance of Precip.
Yesterday
High -- | Low -- °F
Precip. -- in
7:04 AM 4:01 PM
Waxing Crescent, 3% visible
Pressure 30.05 in
Visibility 10.0 miles
Clouds Clear
Windchill 33 °F
Dew Point 20 °F
Humidity 58%
Rainfall 0.20 in
Snow Depth Not available.
UV 0 out of 12
Pollen .10 out of 12
Air Quality Not available.
Flu Activity Not available.
METAR KCOE 240335Z AUTO 24009KT 10SM CLR 02/M01 A3005 RMK AO1

More Conditions Fewer Conditions

Pressure 30.05 in
Visibility 10.0 miles
Clouds Clear
Windchill 33 °F
Dew Point 20 °F
Humidity 58%
Rainfall 0.20 in
Snow Depth Not available.
UV 0 out of 12
Pollen .10 out of 12
Air Quality Not available.
Flu Activity Not available.
METAR KCOE 240335Z AUTO 24009KT 10SM CLR 02/M01 A3005 RMK AO1

More Conditions Fewer Conditions

10-Day Weather Forecast

Almanac

Astronomy

Nov. 23, 2014 Rise Set
Actual Time
Civil Twilight
Nautical Twilight
Astronomical Twilight
Moon
Length of Visible Light
Length of Day
Tomorrow will be .
, % of the Moon is Illuminated

Today's Extremes

State Highs State Lows

Community

WunderPhotos

Upload Photos

1,773,262 photos uploaded!

WunderBlogs® & News

Nearby

Air Quality

  Air Quality AQ Index Pollutant
Not available.

Snow Depth

Station Depth Elevation

Earthquake Activity

City Distance Mag. Time & Date
Minimum magnitude displayed is 2.5.

Coastal Water Temperatures

Place Temperature

Nearby Weather Stations